• Join FlightAware (Why Join?)
  • Login
  • US Flag GB Flag 
11:49 EST


 

Airport Tracker/Info


-or-


 

Live Flight TrackerFlight Track Log ✈ UAL4457 ✈ 25-Apr-2013 ✈ KIAH - KLEX

Flight Track Log - Related Links

Times and Time Zones

All times are in EDT time to prevent confusion due to time zone crossing. See the UAL4457 flight status page for this flight to view local times or setup timezone preferences in your user account.

Time Position Orientation Groundspeed Altitude Reporting Facility
EDT Latitude Longitude Course Direction KTS MPH feet Rate Location/Type
15:08 29.9769 -95.3031 35° Northeast 153 176 700  Level Houston Center
15:09 30.0297 -95.2606 35° Northeast 232 267 3,200 2,280 Climbing Houston Center
15:10 30.0964 -95.2331 20° North 265 305 6,000 2,460 Climbing Houston Center
15:11 30.2774 -95.0947 32° Northeast  Level FlightAware Approximate
15:11 30.1211 -95.2208 23° Northeast 258 297 6,800  Level Houston Center
15:12 30.3777 -95.0178 35° Northeast  Level FlightAware Approximate
15:12 30.1897 -95.1758 30° Northeast 283 326 9,600  Level Houston Center
15:13 30.4753 -94.9431 35° Northeast  Level FlightAware Approximate
15:13 30.2581 -95.1208 35° Northeast 296 341 11,200  Level Houston Center
15:14 30.3606 -95.0414 34° Northeast 362 417 13,200 2,040 Climbing Houston Center
15:15 30.4447 -94.9761 34° Northeast 366 421 15,500 1,380 Climbing Houston Center
15:16 30.5308 -94.9089 34° Northeast 372 428 16,100 240 Climbing Houston Center
15:17 30.6217 -94.8394 33° Northeast 386 444 16,100  Level Houston Center
15:18 30.7300 -94.7567 33° Northeast 388 447 16,100  Level Houston Center
15:19 30.8189 -94.6869 34° Northeast 387 445 16,100 360 Level Houston Center
15:20 30.9081 -94.6178 34° Northeast 386 444 16,900 900 Climbing Houston Center
15:21 30.9992 -94.5472 34° Northeast 392 451 18,000 1,200 Climbing Houston Center
15:22 31.0906 -94.4758 34° Northeast 395 455 19,500 1,620 Climbing Houston Center
15:22 31.1244 -94.4506 33° Northeast 395 455 20,200 1,860 Climbing Fort Worth Center
15:23 31.2206 -94.3747 34° Northeast 395 455 22,000 1,860 Climbing Fort Worth Center
15:24 31.3108 -94.3058 33° Northeast 395 455 24,000 1,920 Climbing Fort Worth Center
15:25 31.4008 -94.2347 34° Northeast 395 455 25,900 1,800 Climbing Fort Worth Center
15:26 31.4931 -94.1633 33° Northeast 395 455 27,600 1,620 Climbing Fort Worth Center
15:27 31.5831 -94.0919 34° Northeast 395 455 29,200 1,620 Climbing Fort Worth Center
15:28 31.6750 -94.0228 33° Northeast 395 455 30,900 1,560 Climbing Fort Worth Center
15:29 31.7711 -93.9461 34° Northeast 387 445 32,400 1,020 Climbing Fort Worth Center
15:30 31.8653 -93.8739 33° Northeast 392 451 33,000 300 Climbing Fort Worth Center
15:31 31.9550 -93.7994 35° Northeast 416 479 33,000 600 Level Fort Worth Center
15:32 32.0692 -93.7117 33° Northeast 435 501 34,200 960 Climbing Fort Worth Center
15:33 32.1733 -93.6289 34° Northeast 446 513 35,000 360 Climbing Fort Worth Center
15:34 32.2789 -93.5311 38° Northeast 456 525 35,000  Level Fort Worth Center
15:35 32.3889 -93.4478 33° Northeast 468 539 35,000  Level Fort Worth Center
15:36 32.4989 -93.3592 34° Northeast 468 539 35,000  Level Fort Worth Center
15:37 32.6108 -93.2703 34° Northeast 474 545 35,000  Level Fort Worth Center
15:38 32.7206 -93.1814 34° Northeast 474 545 35,000  Level Fort Worth Center
15:39 32.8303 -93.0919 34° Northeast 474 545 35,000  Level Fort Worth Center
15:40 32.9397 -93.0025 34° Northeast 474 545 35,000  Level Fort Worth Center
15:41 33.0514 -92.9128 34° Northeast 479 551 35,000  Level Fort Worth Center
15:42 33.1567 -92.8256 35° Northeast 472 543 35,000  Level Fort Worth Center
15:46 33.4711 -92.4217 47° Northeast 492 566 35,000  Level Memphis Center
15:47 33.5567 -92.2942 51° Northeast 492 566 35,000  Level Memphis Center
15:48 33.6400 -92.1661 52° Northeast 492 566 35,000  Level Memphis Center
15:49 33.7275 -92.0331 52° Northeast 492 566 35,000  Level Memphis Center
15:50 33.8125 -91.9047 51° Northeast 492 566 35,000  Level Memphis Center
15:51 33.8956 -91.7736 53° Northeast 492 566 35,000  Level Memphis Center
15:52 33.9869 -91.6247 53° Northeast 499 574 35,000  Level Memphis Center
15:53 34.0717 -91.4881 53° Northeast 499 574 35,000  Level Memphis Center
15:54 34.1561 -91.3586 52° Northeast 494 568 35,000  Level Memphis Center
15:55 34.2406 -91.2264 52° Northeast 489 563 35,000  Level Memphis Center
15:56 34.3250 -91.0939 52° Northeast 489 563 35,000  Level Memphis Center
15:57 34.4069 -90.9639 53° Northeast 484 557 35,000  Level Memphis Center
15:58 34.4889 -90.8358 52° Northeast 484 557 35,000  Level Memphis Center
15:59 34.5708 -90.7003 54° Northeast 484 557 35,000  Level Memphis Center
16:00 34.6442 -90.5819 53° Northeast 484 557 35,000  Level Memphis Center
16:01 34.7256 -90.4481 53° Northeast 494 568 35,000  Level Memphis Center
16:02 34.8092 -90.3142 53° Northeast 494 568 35,000  Level Memphis Center
16:03 34.8944 -90.1800 52° Northeast 494 568 35,000  Level Memphis Center
16:04 34.9881 -90.0378 51° Northeast 494 568 35,000  Level Memphis Center
16:05 35.0606 -89.8803 61° Northeast 508 585 35,000  Level Memphis Center
16:06 35.1183 -89.7122 67° East 519 597 35,000  Level Memphis Center
16:07 35.1717 -89.5492 68° East 526 605 35,000  Level Memphis Center
16:08 35.2289 -89.3861 67° East 516 594 35,000  Level Memphis Center
16:09 35.2817 -89.2378 66° East 516 594 35,000  Level Memphis Center
16:10 35.3386 -89.0742 67° East 521 600 35,000  Level Memphis Center
16:11 35.3931 -88.9078 68° East 521 600 35,000  Level Memphis Center
16:12 35.4494 -88.7489 66° East 509 586 35,000  Level Memphis Center
16:13 35.5058 -88.5869 67° East 509 586 35,000  Level Memphis Center
16:14 35.5617 -88.4250 67° East 509 586 35,000  Level Memphis Center
16:15 35.6194 -88.2603 67° East 515 593 35,000  Level Memphis Center
16:16 35.6769 -88.0903 67° East 501 577 35,000  Level Memphis Center
16:17 35.7303 -87.9275 68° East 501 577 35,000  Level Memphis Center
16:18 35.7794 -87.7828 67° East 501 577 35,000  Level Memphis Center
16:19 35.8322 -87.6172 68° East 501 577 35,000  Level Memphis Center
16:20 35.8847 -87.4567 68° East 501 577 35,000 -180 Level Memphis Center
16:21 35.9392 -87.2908 68° East 501 577 34,700 -660 Descending Memphis Center
16:22 35.9914 -87.1297 68° East 506 582 33,700 -900 Descending Memphis Center
16:23 36.0453 -86.9633 68° East 506 582 33,000 -360 Descending Memphis Center
16:24 36.0992 -86.7967 68° East 511 588 33,000  Level Memphis Center
16:25 36.1675 -86.6369 62° Northeast 518 596 33,000  Level Memphis Center
16:26 36.2572 -86.5092 49° Northeast 500 575 33,000  Level Memphis Center
16:27 36.3472 -86.3839 48° Northeast 494 568 33,000 -300 Level Memphis Center
16:28 36.4367 -86.2556 49° Northeast 489 563 32,500 -900 Descending Memphis Center
16:29 36.5261 -86.1272 49° Northeast 484 557 31,300 -1,200 Descending Memphis Center
16:30 36.6178 -85.9983 48° Northeast 484 557 30,100 -1,200 Descending Memphis Center
16:32 36.7814 -85.7553 50° Northeast 490 564 28,000 -1,200 Descending Indianapolis Center
16:33 36.8714 -85.6247 49° Northeast 491 565 26,800 -1,440 Descending Indianapolis Center
16:34 36.9572 -85.4972 50° Northeast 478 550 25,100 -2,040 Descending Indianapolis Center
16:35 37.0381 -85.3769 50° Northeast 458 527 22,700 -2,580 Descending Indianapolis Center
16:36 37.1336 -85.2372 49° Northeast 447 514 19,800 -2,400 Descending Indianapolis Center
16:37 37.2100 -85.1228 50° Northeast 429 494 17,800 -1,800 Descending Indianapolis Center
16:38 37.2839 -85.0119 50° Northeast 415 478 16,100 -1,860 Descending Indianapolis Center
16:39 37.3567 -84.9044 50° Northeast 402 463 14,000 -2,040 Descending Indianapolis Center
16:40 37.4250 -84.8000 50° Northeast 388 447 11,900 -1,680 Descending Indianapolis Center
16:41 37.5100 -84.7103 40° Northeast 349 402 10,600 -900 Descending Indianapolis Center
16:42 37.6008 -84.6817 14° North 334 384 10,100 -300 Descending Indianapolis Center
16:43 37.6894 -84.6519 15° North 330 380 10,000  Descending Indianapolis Center
16:44 37.7767 -84.6222 15° North 325 374 10,100 -480 Climbing Indianapolis Center
16:45 37.8547 -84.5967 14° North 294 338 9,100 -1,260 Descending Indianapolis Center
16:46 37.9242 -84.5739 15° North 265 305 7,500 -1,800 Descending Indianapolis Center
16:47 38.0014 -84.5278 25° Northeast 272 313 5,400 -2,040 Descending Indianapolis Center